createdAt,value
2017-06-02T00:00:51.866Z,5.80
2017-06-02T00:03:20.938Z,7.12
2017-06-02T00:05:50.052Z,6.70
2017-06-02T00:08:19.137Z,6.56
2017-06-02T00:10:48.180Z,6.76
2017-06-02T00:13:17.236Z,6.78
2017-06-02T00:15:46.308Z,6.18
2017-06-02T00:18:15.376Z,6.34
2017-06-02T00:20:44.462Z,6.42
2017-06-02T00:23:13.536Z,6.10
2017-06-02T00:25:42.582Z,6.28
2017-06-02T00:28:11.645Z,6.58
2017-06-02T00:30:40.678Z,6.44
2017-06-02T00:33:09.729Z,7.00
2017-06-02T00:35:38.817Z,6.02
2017-06-02T00:38:07.924Z,5.94
2017-06-02T00:40:37.101Z,7.80
2017-06-02T00:43:06.153Z,6.68
2017-06-02T00:45:35.201Z,6.64
2017-06-02T00:48:04.277Z,6.82
2017-06-02T00:50:33.317Z,5.54
2017-06-02T00:53:02.401Z,6.80
2017-06-02T00:55:31.449Z,7.04
2017-06-02T00:58:00.556Z,5.58
2017-06-02T01:00:29.634Z,6.92
2017-06-02T01:02:58.772Z,5.88
2017-06-02T01:05:27.951Z,6.52
2017-06-02T01:07:57.044Z,6.88
2017-06-02T01:10:26.140Z,6.68
2017-06-02T01:12:55.205Z,7.54
2017-06-02T01:15:24.337Z,6.20
2017-06-02T01:17:53.449Z,6.72
2017-06-02T01:20:22.557Z,6.56
2017-06-02T01:22:51.613Z,5.94
2017-06-02T01:25:20.722Z,6.90
2017-06-02T01:27:49.826Z,7.30
2017-06-02T01:30:18.912Z,7.00
2017-06-02T01:32:47.961Z,6.72
2017-06-02T01:35:17.109Z,6.78
2017-06-02T01:37:46.148Z,6.14
2017-06-02T01:40:15.311Z,6.84
2017-06-02T01:42:44.414Z,6.58
2017-06-02T01:45:13.493Z,6.86
2017-06-02T01:47:42.578Z,7.00
2017-06-02T01:50:11.695Z,7.62
2017-06-02T01:52:40.781Z,8.70
2017-06-02T01:55:09.877Z,8.06
2017-06-02T01:57:38.965Z,8.76
2017-06-02T02:00:08.069Z,7.90
2017-06-02T02:02:37.119Z,8.40
2017-06-02T02:05:06.213Z,8.24
2017-06-02T02:07:35.265Z,8.10
2017-06-02T02:10:04.313Z,7.92
2017-06-02T02:12:33.457Z,7.74
2017-06-02T02:15:02.514Z,7.28
2017-06-02T02:17:31.612Z,7.78
2017-06-02T02:20:00.746Z,8.40
2017-06-02T02:22:29.802Z,7.42
2017-06-02T02:24:58.864Z,6.86
2017-06-02T02:27:27.906Z,7.38
2017-06-02T02:29:57.024Z,7.54
2017-06-02T02:32:26.101Z,7.66
2017-06-02T02:34:55.184Z,7.86
2017-06-02T02:37:24.297Z,7.44
2017-06-02T02:39:53.401Z,6.94
2017-06-02T02:42:22.457Z,7.78
2017-06-02T02:44:51.685Z,6.94
2017-06-02T02:47:20.884Z,7.44
2017-06-02T02:49:49.917Z,8.04
2017-06-02T02:52:18.983Z,7.54
2017-06-02T02:54:48.064Z,7.80
2017-06-02T02:57:17.113Z,8.68
2017-06-02T02:59:46.193Z,7.54
2017-06-02T03:02:15.233Z,6.98
2017-06-02T03:04:44.288Z,7.32
2017-06-02T03:07:13.354Z,7.18
2017-06-02T03:09:42.458Z,7.82
2017-06-02T03:12:11.616Z,7.52
2017-06-02T03:14:40.668Z,7.28
2017-06-02T03:17:09.705Z,7.62
2017-06-02T03:19:38.890Z,8.68
2017-06-02T03:22:08.039Z,8.04
2017-06-02T03:24:37.235Z,7.98
2017-06-02T03:27:06.324Z,8.60
2017-06-02T03:29:35.424Z,8.38
2017-06-02T03:32:04.533Z,8.32
2017-06-02T03:34:33.620Z,8.46
2017-06-02T03:37:02.731Z,8.48
2017-06-02T03:39:31.800Z,8.08
2017-06-02T03:42:00.847Z,7.80
2017-06-02T03:44:29.913Z,7.70
2017-06-02T03:46:58.960Z,7.14
2017-06-02T03:49:28.049Z,7.10
2017-06-02T03:51:57.123Z,7.08
2017-06-02T03:54:26.273Z,7.40
2017-06-02T03:56:55.373Z,7.40
2017-06-02T03:59:24.482Z,7.20
2017-06-02T04:01:53.674Z,6.96
2017-06-02T04:04:22.741Z,7.40
2017-06-02T04:06:51.856Z,7.40
2017-06-02T04:09:20.920Z,7.54
2017-06-02T04:11:50.071Z,8.74
2017-06-02T04:14:19.167Z,6.60
2017-06-02T04:16:48.297Z,7.14
2017-06-02T04:19:17.373Z,7.40
2017-06-02T04:21:46.451Z,7.48
2017-06-02T04:24:15.502Z,8.14
2017-06-02T04:26:44.680Z,7.20
2017-06-02T04:29:13.812Z,7.02
2017-06-02T04:31:42.930Z,7.88
2017-06-02T04:34:12.020Z,7.88
2017-06-02T04:36:41.092Z,8.20
2017-06-02T04:39:10.195Z,7.58
2017-06-02T04:41:39.254Z,7.92
2017-06-02T04:44:08.285Z,8.74
2017-06-02T04:46:38.202Z,8.22
2017-06-02T04:49:07.360Z,8.46
2017-06-02T04:51:36.550Z,7.96
2017-06-02T04:54:05.675Z,8.16
2017-06-02T04:56:34.719Z,8.72
2017-06-02T04:59:04.520Z,8.08
2017-06-02T05:01:33.602Z,8.50
2017-06-02T05:04:02.745Z,8.36
2017-06-02T05:06:31.804Z,7.60
2017-06-02T05:09:00.866Z,11.50
2017-06-02T05:11:30.129Z,8.78
2017-06-02T05:13:59.177Z,9.10
2017-06-02T05:16:28.346Z,8.46
2017-06-02T05:18:57.398Z,6.80
2017-06-02T05:21:26.623Z,8.22
2017-06-02T05:23:55.735Z,7.62
2017-06-02T05:26:24.778Z,7.26
2017-06-02T05:28:53.924Z,7.74
2017-06-02T05:31:22.969Z,7.88
2017-06-02T05:33:52.009Z,7.30
2017-06-02T05:36:21.058Z,6.72
2017-06-02T05:38:50.100Z,7.82
2017-06-02T05:41:19.190Z,8.08
2017-06-02T05:43:48.236Z,6.64
2017-06-02T05:46:17.282Z,7.08
2017-06-02T05:48:46.374Z,6.22
2017-06-02T05:51:15.508Z,7.14
2017-06-02T05:53:44.592Z,7.26
2017-06-02T05:56:13.637Z,6.72
2017-06-02T05:58:42.677Z,6.70
2017-06-02T06:01:11.737Z,6.80
2017-06-02T06:03:40.883Z,6.42
2017-06-02T06:06:09.980Z,7.32
2017-06-02T06:08:39.024Z,6.18
2017-06-02T06:11:08.176Z,7.24
2017-06-02T06:13:37.372Z,6.12
2017-06-02T06:16:06.528Z,5.98
2017-06-02T06:18:35.669Z,5.38
2017-06-02T06:21:04.713Z,5.34
2017-06-02T06:23:33.754Z,5.52
2017-06-02T06:26:02.818Z,6.12
2017-06-02T06:28:31.860Z,6.10
2017-06-02T06:31:00.945Z,6.10
2017-06-02T06:33:30.036Z,5.00
2017-06-02T06:35:59.139Z,6.42
2017-06-02T06:38:28.228Z,5.52
2017-06-02T06:40:57.270Z,5.80
2017-06-02T06:43:26.326Z,6.48
2017-06-02T06:45:55.377Z,15.92
2017-06-02T06:48:24.512Z,7.38
2017-06-02T06:50:53.556Z,5.68
2017-06-02T06:53:22.716Z,6.00
2017-06-02T06:55:51.778Z,4.74
2017-06-02T06:58:20.813Z,4.82
2017-06-02T07:00:50.004Z,4.90
2017-06-02T07:03:19.063Z,4.26
2017-06-02T07:05:48.128Z,4.48
2017-06-02T07:08:17.201Z,4.90
2017-06-02T07:10:46.352Z,3.98
2017-06-02T07:13:15.407Z,3.54
2017-06-02T07:15:44.539Z,3.62
2017-06-02T07:18:13.641Z,3.60
2017-06-02T07:20:42.836Z,3.46
2017-06-02T07:23:11.934Z,4.16
2017-06-02T07:25:41.034Z,3.98
2017-06-02T07:28:10.136Z,3.62
2017-06-02T07:30:39.195Z,5.50
2017-06-02T07:33:08.245Z,3.34
2017-06-02T07:35:37.288Z,3.56
2017-06-02T07:38:06.414Z,4.42
2017-06-02T07:40:35.504Z,4.02
2017-06-02T07:43:04.549Z,4.30
2017-06-02T07:45:33.643Z,4.78
2017-06-02T07:48:02.690Z,3.10
2017-06-02T07:50:31.788Z,6.80
2017-06-02T07:53:00.881Z,2.86
2017-06-02T07:55:29.989Z,3.06
2017-06-02T07:57:59.072Z,3.64
2017-06-02T08:00:28.170Z,3.60
2017-06-02T08:02:57.248Z,3.26
2017-06-02T08:05:26.289Z,3.26
2017-06-02T08:07:55.358Z,2.66
2017-06-02T08:10:24.455Z,2.96
2017-06-02T08:12:53.549Z,2.62
2017-06-02T08:15:22.600Z,3.06
2017-06-02T08:17:51.712Z,3.28
2017-06-02T08:20:20.757Z,3.46
2017-06-02T08:22:49.802Z,3.84
2017-06-02T08:25:18.909Z,4.22
2017-06-02T08:27:47.949Z,3.58
2017-06-02T08:30:17.034Z,3.70
2017-06-02T08:32:46.120Z,3.58
2017-06-02T08:35:15.224Z,2.86
2017-06-02T08:37:44.281Z,3.02
2017-06-02T08:40:13.324Z,3.50
2017-06-02T08:42:42.388Z,3.10
2017-06-02T08:45:11.548Z,2.96
2017-06-02T08:47:40.649Z,3.26
2017-06-02T08:50:09.682Z,3.72
2017-06-02T08:52:38.746Z,3.10
2017-06-02T08:55:07.821Z,3.50
2017-06-02T08:57:36.964Z,2.96
2017-06-02T09:00:06.050Z,4.16
2017-06-02T09:02:35.132Z,2.88
2017-06-02T09:05:04.185Z,2.64
2017-06-02T09:07:33.236Z,2.94
2017-06-02T09:10:02.327Z,3.00
2017-06-02T09:12:31.406Z,3.28
2017-06-02T09:15:00.467Z,3.10
2017-06-02T09:17:29.510Z,3.12
2017-06-02T09:19:58.598Z,2.80
2017-06-02T09:22:27.729Z,2.50
2017-06-02T09:24:56.913Z,2.32
2017-06-02T09:27:26.012Z,2.62
2017-06-02T09:29:55.194Z,2.96
2017-06-02T09:32:24.230Z,2.90
2017-06-02T09:34:53.289Z,3.00
2017-06-02T09:37:22.378Z,2.70
2017-06-02T09:39:51.421Z,2.48
2017-06-02T09:42:20.984Z,2.66
2017-06-02T09:44:50.068Z,2.60
2017-06-02T09:47:19.170Z,2.12
2017-06-02T09:49:48.213Z,2.70
2017-06-02T09:52:17.281Z,2.76
2017-06-02T09:54:46.375Z,3.06
2017-06-02T09:57:15.455Z,2.84
2017-06-02T09:59:44.586Z,2.20
2017-06-02T10:02:13.679Z,2.60
2017-06-02T10:04:42.739Z,2.70
2017-06-02T10:07:11.801Z,3.04
2017-06-02T10:09:40.926Z,3.00
2017-06-02T10:12:10.139Z,2.84
2017-06-02T10:14:39.197Z,3.44
2017-06-02T10:17:08.329Z,2.58
2017-06-02T10:19:37.417Z,2.24
2017-06-02T10:22:06.512Z,2.70
2017-06-02T10:24:35.594Z,2.16
2017-06-02T10:27:04.712Z,2.28
2017-06-02T10:29:33.812Z,1.82
2017-06-02T10:32:02.869Z,1.72
2017-06-02T10:34:32.020Z,2.66
2017-06-02T10:37:01.119Z,2.70
2017-06-02T10:39:30.184Z,1.92
2017-06-02T10:41:59.221Z,1.94
2017-06-02T10:44:28.286Z,2.20
2017-06-02T10:46:57.324Z,2.48
2017-06-02T10:49:26.384Z,1.92
2017-06-02T10:51:55.474Z,2.16
2017-06-02T10:54:24.566Z,1.78
2017-06-02T10:56:53.605Z,1.68
2017-06-02T10:59:22.642Z,2.02
2017-06-02T11:01:51.739Z,1.42
2017-06-02T11:04:20.777Z,1.44
2017-06-02T11:06:49.880Z,1.72
2017-06-02T11:09:19.034Z,1.64
2017-06-02T11:11:48.202Z,1.98
2017-06-02T11:14:17.260Z,1.96
2017-06-02T11:16:46.323Z,1.96
2017-06-02T11:19:15.412Z,1.56
2017-06-02T11:21:44.454Z,1.68
2017-06-02T11:24:13.616Z,1.22
2017-06-02T11:26:42.716Z,1.56
2017-06-02T11:29:11.815Z,1.10
2017-06-02T11:31:41.003Z,1.38
2017-06-02T11:34:10.116Z,1.52
2017-06-02T11:36:39.161Z,1.68
2017-06-02T11:39:08.297Z,1.62
2017-06-02T11:41:37.349Z,1.30
2017-06-02T11:44:06.492Z,1.48
2017-06-02T11:46:35.555Z,1.90
2017-06-02T11:49:04.669Z,1.40
2017-06-02T11:51:33.762Z,1.52
2017-06-02T11:54:02.808Z,1.64
2017-06-02T11:56:31.913Z,2.48
2017-06-02T11:59:00.948Z,1.48
2017-06-02T12:01:30.055Z,1.34
2017-06-02T12:03:59.186Z,1.10
2017-06-02T12:06:28.234Z,1.50
2017-06-02T12:08:57.339Z,1.28
2017-06-02T12:11:26.378Z,1.20
2017-06-02T12:13:55.428Z,1.46
2017-06-02T12:16:24.493Z,1.24
2017-06-02T12:18:53.537Z,1.30
2017-06-02T12:21:22.654Z,1.18
2017-06-02T12:23:51.852Z,1.30
2017-06-02T12:26:20.880Z,1.04
2017-06-02T12:28:49.944Z,1.30
2017-06-02T12:31:19.075Z,1.22
2017-06-02T12:33:48.165Z,1.06
2017-06-02T12:36:17.243Z,1.40
2017-06-02T12:38:46.277Z,1.30
2017-06-02T12:41:15.341Z,1.10
2017-06-02T12:43:44.430Z,1.16
2017-06-02T12:46:13.513Z,0.98
2017-06-02T12:48:42.555Z,1.10
2017-06-02T12:51:11.600Z,1.10
2017-06-02T12:53:40.652Z,0.96
2017-06-02T12:56:09.802Z,1.16
2017-06-02T12:58:38.996Z,1.08
2017-06-02T13:01:08.360Z,1.08
2017-06-02T13:03:37.386Z,0.96
2017-06-02T13:06:06.492Z,1.10
2017-06-02T13:08:35.555Z,0.94
2017-06-02T13:11:04.645Z,0.80
2017-06-02T13:13:33.686Z,1.02
2017-06-02T13:16:02.768Z,1.12
2017-06-02T13:18:31.860Z,1.02
2017-06-02T13:21:00.991Z,1.30
2017-06-02T13:23:30.073Z,1.08
2017-06-02T13:25:59.139Z,0.76
2017-06-02T13:28:28.244Z,1.16
2017-06-02T13:30:57.328Z,1.10
2017-06-02T13:33:26.460Z,0.84
2017-06-02T13:35:55.527Z,1.18
2017-06-02T13:38:24.569Z,1.00
2017-06-02T13:40:53.729Z,1.00
2017-06-02T13:43:22.828Z,0.78
2017-06-02T13:45:51.874Z,1.28
2017-06-02T13:48:20.929Z,1.00
2017-06-02T13:50:49.977Z,1.08
2017-06-02T13:53:19.125Z,0.70
2017-06-02T13:55:48.171Z,0.84
2017-06-02T13:58:17.221Z,0.84
2017-06-02T14:00:46.261Z,0.88
2017-06-02T14:03:15.315Z,0.78
2017-06-02T14:05:44.484Z,0.90
2017-06-02T14:08:13.590Z,0.94
2017-06-02T14:10:42.672Z,0.64
2017-06-02T14:13:11.747Z,0.92
2017-06-02T14:15:40.887Z,0.62
2017-06-02T14:18:09.961Z,0.88
2017-06-02T14:20:39.061Z,0.98
2017-06-02T14:23:08.148Z,0.80
2017-06-02T14:25:37.208Z,0.76
2017-06-02T14:28:06.241Z,0.70
2017-06-02T14:30:35.340Z,0.72
2017-06-02T14:33:04.376Z,0.68
2017-06-02T14:35:33.427Z,0.70
2017-06-02T14:38:02.542Z,0.80
2017-06-02T14:40:31.633Z,0.74
2017-06-02T14:43:00.694Z,0.78
2017-06-02T14:45:29.829Z,1.08
2017-06-02T14:47:58.908Z,0.74
2017-06-02T14:50:27.950Z,0.76
2017-06-02T14:52:56.997Z,0.78
2017-06-02T14:55:26.039Z,0.90
2017-06-02T14:57:55.096Z,1.00
2017-06-02T15:00:24.152Z,0.90
2017-06-02T15:02:53.210Z,0.82
2017-06-02T15:05:22.290Z,0.88
2017-06-02T15:07:51.344Z,0.86
2017-06-02T15:10:20.398Z,1.16
2017-06-02T15:12:49.578Z,1.00
2017-06-02T15:15:18.626Z,0.90
2017-06-02T15:17:47.660Z,0.90
2017-06-02T15:20:16.756Z,0.82
2017-06-02T15:22:45.842Z,0.92
2017-06-02T15:25:14.950Z,1.10
2017-06-02T15:27:44.000Z,0.94
2017-06-02T15:30:13.133Z,1.26
2017-06-02T15:32:42.179Z,0.96
2017-06-02T15:35:11.254Z,1.10
2017-06-02T15:37:40.324Z,1.58
2017-06-02T15:40:09.385Z,0.90
2017-06-02T15:42:38.458Z,1.00
2017-06-02T15:45:07.602Z,1.12
2017-06-02T15:47:36.650Z,1.56
2017-06-02T15:50:05.769Z,1.30
2017-06-02T15:52:34.880Z,1.08
2017-06-02T15:55:03.978Z,1.54
2017-06-02T15:57:33.081Z,1.16
2017-06-02T16:00:02.150Z,1.38
2017-06-02T16:02:31.257Z,1.10
2017-06-02T16:05:00.296Z,1.30
2017-06-02T16:07:29.357Z,1.30
2017-06-02T16:09:58.401Z,1.28
2017-06-02T16:12:27.566Z,1.70
2017-06-02T16:14:56.605Z,1.18
2017-06-02T16:17:25.755Z,1.20
2017-06-02T16:19:54.801Z,1.24
2017-06-02T16:22:23.948Z,1.26
2017-06-02T16:24:53.033Z,1.18
2017-06-02T16:27:22.239Z,0.98
2017-06-02T16:29:51.293Z,1.48
2017-06-02T16:32:20.347Z,1.52
2017-06-02T16:34:49.441Z,1.26
2017-06-02T16:37:18.492Z,1.82
2017-06-02T16:39:47.697Z,1.70
2017-06-02T16:42:16.730Z,1.50
2017-06-02T16:44:45.794Z,1.94
2017-06-02T16:47:14.060Z,1.44
2017-06-02T16:49:43.154Z,1.90
2017-06-02T16:52:12.201Z,1.26
2017-06-02T16:54:41.285Z,2.00
2017-06-02T16:57:43.927Z,2.63
2017-06-02T17:00:12.286Z,1.80
2017-06-02T17:02:40.576Z,1.70
2017-06-02T17:05:08.874Z,1.60
2017-06-02T17:07:37.238Z,2.50
2017-06-02T17:10:05.536Z,1.93
2017-06-02T17:12:33.820Z,1.90
2017-06-02T17:15:02.194Z,1.50
2017-06-02T17:17:31.247Z,2.60
2017-06-02T17:19:59.518Z,18.33
2017-06-02T17:22:27.928Z,41.00
2017-06-02T17:24:57.015Z,10.27
2017-06-02T17:27:25.385Z,3.07
2017-06-02T17:29:53.672Z,2.30
2017-06-02T17:32:22.103Z,2.20
2017-06-02T17:34:50.372Z,2.00
2017-06-02T17:37:18.734Z,1.47
2017-06-02T17:39:47.015Z,1.70
2017-06-02T17:42:16.098Z,1.50
2017-06-02T17:44:45.162Z,4.60
2017-06-02T17:47:13.458Z,1.40
2017-06-02T17:49:41.829Z,1.70
2017-06-02T17:52:10.093Z,1.37
2017-06-02T17:54:38.493Z,2.30
2017-06-02T17:57:06.778Z,2.33
2017-06-02T17:59:35.842Z,1.63
2017-06-02T18:02:04.117Z,1.50
2017-06-02T18:04:32.598Z,1.30
2017-06-02T18:07:00.887Z,1.80
2017-06-02T18:09:29.182Z,1.43
2017-06-02T18:11:58.276Z,1.43
2017-06-02T18:14:26.633Z,1.30
2017-06-02T18:16:55.040Z,1.33
2017-06-02T18:19:23.422Z,1.27
2017-06-02T18:21:52.604Z,1.30
2017-06-02T18:24:20.871Z,1.30
2017-06-02T18:26:49.137Z,1.20
2017-06-02T18:29:17.516Z,1.53
2017-06-02T18:31:45.804Z,1.70
2017-06-02T18:34:14.178Z,1.47
2017-06-02T18:36:42.473Z,1.80
2017-06-02T18:39:10.726Z,2.30
2017-06-02T18:41:39.110Z,12.47
2017-06-02T18:44:07.392Z,5.73
2017-06-02T18:46:35.766Z,4.57
2017-06-02T18:49:04.022Z,2.20
2017-06-02T18:51:32.305Z,1.90
2017-06-02T18:54:00.600Z,1.83
2017-06-02T18:56:28.873Z,2.27
2017-06-02T18:58:57.256Z,2.93
2017-06-02T19:01:25.531Z,2.53
2017-06-02T19:03:53.912Z,2.50
2017-06-02T19:06:22.289Z,2.00
2017-06-02T19:08:50.703Z,2.17
2017-06-02T19:11:20.105Z,2.87
2017-06-02T19:13:48.382Z,2.50
2017-06-02T19:16:16.673Z,3.57
2017-06-02T19:18:45.003Z,3.23
2017-06-02T19:21:13.364Z,2.90
2017-06-02T19:23:41.678Z,2.90
2017-06-02T19:26:09.936Z,3.37
2017-06-02T19:28:38.252Z,2.60
2017-06-02T19:31:07.294Z,2.40
2017-06-02T19:33:35.625Z,2.87
2017-06-02T19:36:04.703Z,2.80
2017-06-02T19:38:32.960Z,2.60
2017-06-02T19:41:01.258Z,2.70
2017-06-02T19:43:29.646Z,3.07
2017-06-02T19:45:58.733Z,2.37
2017-06-02T19:48:26.993Z,2.70
2017-06-02T19:50:55.284Z,2.37
2017-06-02T19:53:23.659Z,3.23
2017-06-02T19:55:51.923Z,2.90
2017-06-02T19:58:20.318Z,2.97
2017-06-02T20:00:48.587Z,2.50
2017-06-02T20:03:16.972Z,3.00
2017-06-02T20:05:45.336Z,2.50
2017-06-02T20:08:13.650Z,3.00
2017-06-02T20:10:42.677Z,3.50
2017-06-02T20:13:10.942Z,3.37
2017-06-02T20:15:39.233Z,3.13
2017-06-02T20:18:07.560Z,2.93
2017-06-02T20:20:35.891Z,2.97
2017-06-02T20:23:04.197Z,2.57
2017-06-02T20:25:32.471Z,2.20
2017-06-02T20:28:00.753Z,2.83
2017-06-02T20:30:29.035Z,5.07
2017-06-02T20:32:57.462Z,5.67
2017-06-02T20:35:25.800Z,6.10
2017-06-02T20:37:54.163Z,5.27
2017-06-02T20:40:22.445Z,4.80
2017-06-02T20:42:50.742Z,4.77
2017-06-02T20:45:19.112Z,3.60
2017-06-02T20:47:47.397Z,4.67
2017-06-02T20:50:15.755Z,5.43
2017-06-02T20:52:44.132Z,3.63
2017-06-02T20:55:12.404Z,4.40
2017-06-02T20:57:40.705Z,3.70
2017-06-02T21:00:08.981Z,3.47
2017-06-02T21:02:37.257Z,2.67
2017-06-02T21:05:05.538Z,3.33
2017-06-02T21:07:33.897Z,2.53
2017-06-02T21:10:02.201Z,2.10
2017-06-02T21:12:30.454Z,2.73
2017-06-02T21:14:58.866Z,4.17
2017-06-02T21:17:27.916Z,5.20
2017-06-02T21:19:56.204Z,1.87
2017-06-02T21:22:24.464Z,1.97
2017-06-02T21:24:52.861Z,3.10
2017-06-02T21:27:21.133Z,1.90
2017-06-02T21:29:49.417Z,2.17
2017-06-02T21:32:17.786Z,1.90
2017-06-02T21:34:46.171Z,1.90
2017-06-02T21:37:14.436Z,2.07
2017-06-02T21:39:42.713Z,2.20
2017-06-02T21:42:10.999Z,2.27
2017-06-02T21:44:39.256Z,2.20
2017-06-02T21:47:07.554Z,2.67
2017-06-02T21:49:35.848Z,2.10
2017-06-02T21:52:04.126Z,2.60
2017-06-02T21:54:32.385Z,2.20
2017-06-02T21:57:00.763Z,2.23
2017-06-02T21:59:29.020Z,2.40
2017-06-02T22:01:57.339Z,2.00
2017-06-02T22:04:25.597Z,2.57
2017-06-02T22:06:53.975Z,2.50
2017-06-02T22:09:22.368Z,2.80
2017-06-02T22:11:51.665Z,1.83
2017-06-02T22:14:19.930Z,2.10
2017-06-02T22:16:48.332Z,2.53
2017-06-02T22:19:17.400Z,2.00
2017-06-02T22:21:45.694Z,2.00
2017-06-02T22:24:14.060Z,2.30
2017-06-02T22:26:42.328Z,2.40
2017-06-02T22:29:10.729Z,2.17
2017-06-02T22:31:38.984Z,1.70
2017-06-02T22:34:07.276Z,4.63
2017-06-02T22:36:35.654Z,3.20
2017-06-02T22:39:03.926Z,3.00
2017-06-02T22:41:32.185Z,4.67
2017-06-02T22:44:00.477Z,2.37
2017-06-02T22:46:28.760Z,1.90
2017-06-02T22:48:57.218Z,1.97
2017-06-02T22:51:25.493Z,2.10
2017-06-02T22:53:53.768Z,1.80
2017-06-02T22:56:22.038Z,2.30
2017-06-02T22:58:50.352Z,2.07
2017-06-02T23:01:18.630Z,2.17
2017-06-02T23:03:46.888Z,2.10
2017-06-02T23:06:15.182Z,2.17
2017-06-02T23:08:43.555Z,1.90
2017-06-02T23:11:11.845Z,1.83
2017-06-02T23:13:40.218Z,1.80
2017-06-02T23:16:08.606Z,1.90
2017-06-02T23:18:36.969Z,2.00
2017-06-02T23:21:05.350Z,1.87
2017-06-02T23:23:33.626Z,1.70
2017-06-02T23:26:01.924Z,2.07
2017-06-02T23:28:31.002Z,2.13
2017-06-02T23:30:59.375Z,2.00
2017-06-02T23:33:27.654Z,2.70
2017-06-02T23:35:56.030Z,1.60
2017-06-02T23:38:24.307Z,1.83
2017-06-02T23:40:52.602Z,1.97
2017-06-02T23:43:20.968Z,2.23
2017-06-02T23:45:49.237Z,1.87
2017-06-02T23:48:17.622Z,2.00
2017-06-02T23:50:45.892Z,2.40
2017-06-02T23:53:14.272Z,1.97
2017-06-02T23:55:42.535Z,2.27
2017-06-02T23:58:10.935Z,1.70
